createdAt,value
2023-05-21T00:01:30.099Z,101182.59
2023-05-21T00:03:59.885Z,101181.69
2023-05-21T00:06:28.397Z,101186.91
2023-05-21T00:08:56.868Z,101179.06
2023-05-21T00:11:25.018Z,101182.50
2023-05-21T00:13:53.194Z,101182.44
2023-05-21T00:16:21.464Z,101178.97
2023-05-21T00:18:51.354Z,101177.25
2023-05-21T00:21:22.771Z,101177.34
2023-05-21T00:23:51.075Z,101175.75
2023-05-21T00:26:19.261Z,101173.22
2023-05-21T00:28:48.972Z,101178.50
2023-05-21T00:31:17.582Z,101170.75
2023-05-21T00:33:45.932Z,101169.84
2023-05-21T00:36:15.653Z,101165.59
2023-05-21T00:38:45.897Z,101168.25
2023-05-21T00:41:14.675Z,101163.94
2023-05-21T00:43:44.592Z,101157.88
2023-05-21T00:46:16.724Z,101164.91
2023-05-21T00:48:46.081Z,101164.09
2023-05-21T00:51:16.180Z,101165.00
2023-05-21T00:53:45.280Z,101169.31
2023-05-21T00:56:13.793Z,101167.63
2023-05-21T00:58:42.643Z,101164.19
2023-05-21T01:01:14.244Z,101167.72
2023-05-21T01:03:43.280Z,101165.19
2023-05-21T01:06:14.245Z,101159.13
2023-05-21T01:08:44.196Z,101154.78
2023-05-21T01:11:12.832Z,101159.97
2023-05-21T01:13:43.114Z,101155.66
2023-05-21T01:16:13.661Z,101159.97
2023-05-21T01:18:43.643Z,101154.75
2023-05-21T01:21:13.745Z,101151.34
2023-05-21T01:23:43.488Z,101144.34
2023-05-21T01:26:13.138Z,101144.41
2023-05-21T01:28:42.335Z,101147.00
2023-05-21T01:31:24.671Z,101149.66
2023-05-21T01:33:54.727Z,101144.56
2023-05-21T01:36:26.906Z,101143.63
2023-05-21T01:39:00.003Z,101143.28
2023-05-21T01:41:30.618Z,101143.91
2023-05-21T01:43:59.451Z,101142.09
2023-05-21T01:46:30.199Z,101134.28
2023-05-21T01:48:59.122Z,101143.91
2023-05-21T01:51:28.437Z,101133.53
2023-05-21T01:53:58.222Z,101132.75
2023-05-21T01:56:28.661Z,101138.06
2023-05-21T01:58:59.690Z,101140.69
2023-05-21T02:01:30.507Z,101145.03
2023-05-21T02:03:59.072Z,101145.03
2023-05-21T02:06:27.400Z,101148.50
2023-05-21T02:08:55.710Z,101148.50
2023-05-21T02:11:26.292Z,101154.53
2023-05-21T02:13:54.765Z,101148.50
2023-05-21T02:16:23.023Z,101149.38
2023-05-21T02:18:53.872Z,101157.16
2023-05-21T02:21:22.226Z,101152.81
2023-05-21T02:23:50.509Z,101155.47
2023-05-21T02:26:19.024Z,101151.16
2023-05-21T02:28:49.323Z,101146.06
2023-05-21T02:31:17.523Z,101148.69
2023-05-21T02:33:46.398Z,101142.66
2023-05-21T02:36:15.445Z,101144.38
2023-05-21T02:38:43.848Z,101140.88
2023-05-21T02:41:13.790Z,101143.38
2023-05-21T02:43:41.992Z,101134.72
2023-05-21T02:46:12.211Z,101139.81
2023-05-21T02:48:40.861Z,101136.34
2023-05-21T02:51:09.247Z,101144.16
2023-05-21T02:53:37.451Z,101136.44
2023-05-21T02:56:06.538Z,101127.81
2023-05-21T02:58:34.775Z,101128.75
2023-05-21T03:01:02.938Z,101128.66
2023-05-21T03:03:33.144Z,101132.22
2023-05-21T03:06:01.581Z,101119.31
2023-05-21T03:08:29.741Z,101122.03
2023-05-21T03:10:58.135Z,101121.06
2023-05-21T03:13:26.613Z,101121.03
2023-05-21T03:15:56.406Z,101119.22
2023-05-21T03:18:24.709Z,101113.19
2023-05-21T03:20:55.650Z,101113.25
2023-05-21T03:23:24.478Z,101118.53
2023-05-21T03:25:53.217Z,101109.91
2023-05-21T03:28:22.681Z,101110.03
2023-05-21T03:30:52.236Z,101105.81
2023-05-21T03:33:32.725Z,101113.66
2023-05-21T03:36:04.128Z,101107.66
2023-05-21T03:38:37.145Z,101108.59
2023-05-21T03:41:07.229Z,101106.78
2023-05-21T03:43:36.008Z,101096.41
2023-05-21T03:46:04.553Z,101101.66
2023-05-21T03:48:56.025Z,101100.03
2023-05-21T03:51:27.591Z,101094.00
2023-05-21T03:53:56.391Z,101090.59
2023-05-21T03:56:24.589Z,101100.22
2023-05-21T03:58:53.123Z,101096.00
2023-05-21T04:01:21.683Z,101091.69
2023-05-21T04:03:52.343Z,101104.78
2023-05-21T04:06:23.894Z,101098.84
2023-05-21T04:08:53.488Z,101103.25
2023-05-21T04:11:22.600Z,101114.59
2023-05-21T04:13:51.770Z,101110.38
2023-05-21T04:16:20.106Z,101110.44
2023-05-21T04:18:48.728Z,101100.09
2023-05-21T04:21:17.952Z,101112.25
2023-05-21T04:23:46.591Z,101110.56
2023-05-21T04:26:29.598Z,101115.78
2023-05-21T04:28:59.535Z,101109.81
2023-05-21T04:31:28.012Z,101113.25
2023-05-21T04:33:56.320Z,101110.59
2023-05-21T04:36:24.651Z,101106.16
2023-05-21T04:38:53.554Z,101111.31
2023-05-21T04:41:21.706Z,101103.47
2023-05-21T04:43:55.437Z,101104.22
2023-05-21T04:46:27.419Z,101105.94
2023-05-21T04:48:56.116Z,101103.25
2023-05-21T04:51:26.848Z,101104.50
2023-05-21T04:53:55.208Z,101102.78
2023-05-21T04:56:23.648Z,101106.31
2023-05-21T04:58:54.241Z,101100.19
2023-05-21T05:01:24.007Z,101100.09
2023-05-21T05:03:52.767Z,101103.47
2023-05-21T05:06:21.550Z,101101.63
2023-05-21T05:08:50.863Z,101104.13
2023-05-21T05:11:19.508Z,101096.22
2023-05-21T05:13:48.480Z,101089.72
2023-05-21T05:16:25.012Z,101090.63
2023-05-21T05:18:54.007Z,101091.31
2023-05-21T05:21:24.117Z,101083.91
2023-05-21T05:23:52.794Z,101084.38
2023-05-21T05:26:25.552Z,101086.81
2023-05-21T05:28:53.822Z,101085.00
2023-05-21T05:31:23.638Z,101082.16
2023-05-21T05:33:53.492Z,101076.78
2023-05-21T05:36:24.294Z,101081.72
2023-05-21T05:38:54.437Z,101080.63
2023-05-21T05:41:24.221Z,101089.88
2023-05-21T05:43:52.401Z,101090.53
2023-05-21T05:46:25.891Z,101084.97
2023-05-21T05:48:54.136Z,101081.94
2023-05-21T05:51:22.344Z,101092.81
2023-05-21T05:53:51.064Z,101090.84
2023-05-21T05:56:19.244Z,101091.03
2023-05-21T05:58:47.748Z,101087.84
2023-05-21T06:01:17.835Z,101084.19
2023-05-21T06:03:48.175Z,101085.38
2023-05-21T06:06:19.201Z,101083.44
2023-05-21T06:08:47.760Z,101079.38
2023-05-21T06:11:19.305Z,101072.72
2023-05-21T06:13:47.623Z,101075.88
2023-05-21T06:16:18.703Z,101078.13
2023-05-21T06:18:48.563Z,101071.47
2023-05-21T06:21:16.864Z,101066.84
2023-05-21T06:23:46.340Z,101064.41
2023-05-21T06:26:14.607Z,101065.50
2023-05-21T06:28:43.298Z,101071.66
2023-05-21T06:31:13.765Z,101081.78
2023-05-21T06:33:43.832Z,101067.69
2023-05-21T06:36:14.093Z,101069.53
2023-05-21T06:38:42.797Z,101074.56
2023-05-21T06:41:11.230Z,101081.31
2023-05-21T06:43:55.908Z,101090.91
2023-05-21T06:46:42.875Z,101074.00
2023-05-21T06:49:14.517Z,101070.25
2023-05-21T06:51:45.773Z,101071.44
2023-05-21T06:54:15.351Z,101067.34
2023-05-21T06:56:44.042Z,101073.06
2023-05-21T06:59:12.298Z,101068.78
2023-05-21T07:01:42.829Z,101068.16
2023-05-21T07:04:11.551Z,101074.16
2023-05-21T07:06:41.175Z,101075.34
2023-05-21T07:09:11.269Z,101070.03
2023-05-21T07:11:40.449Z,101075.00
2023-05-21T07:14:10.104Z,101074.59
2023-05-21T07:16:39.489Z,101076.91
2023-05-21T07:19:08.170Z,101076.53
2023-05-21T07:21:36.575Z,101073.78
2023-05-21T07:24:07.783Z,101075.69
2023-05-21T07:26:41.307Z,101078.41
2023-05-21T07:29:10.117Z,101070.63
2023-05-21T07:31:38.669Z,101072.13
2023-05-21T07:34:07.905Z,101077.56
2023-05-21T07:36:37.091Z,101070.44
2023-05-21T07:39:05.450Z,101076.63
2023-05-21T07:41:33.925Z,101082.06
2023-05-21T07:44:08.290Z,101078.84
2023-05-21T07:46:40.624Z,101078.88
2023-05-21T07:49:16.647Z,101085.22
2023-05-21T07:51:46.318Z,101076.44
2023-05-21T07:54:14.614Z,101069.63
2023-05-21T07:56:42.918Z,101065.34
2023-05-21T07:59:20.335Z,101059.50
2023-05-21T08:01:48.684Z,101057.41
2023-05-21T08:04:17.368Z,101054.88
2023-05-21T08:06:45.745Z,101061.75
2023-05-21T08:09:14.064Z,101058.66
2023-05-21T08:11:43.006Z,101055.56
2023-05-21T08:14:11.784Z,101052.34
2023-05-21T08:16:41.622Z,101060.13
2023-05-21T08:19:10.239Z,101051.59
2023-05-21T08:21:42.117Z,101059.53
2023-05-21T08:24:15.065Z,101052.88
2023-05-21T08:26:45.038Z,101054.03
2023-05-21T08:29:13.941Z,101057.47
2023-05-21T08:31:44.865Z,101053.66
2023-05-21T08:34:13.156Z,101053.34
2023-05-21T08:36:50.086Z,101054.38
2023-05-21T08:39:47.706Z,101056.97
2023-05-21T08:42:35.778Z,101048.25
2023-05-21T08:45:07.822Z,101053.69
2023-05-21T08:47:38.238Z,101054.31
2023-05-21T08:50:10.761Z,101049.69
2023-05-21T08:52:39.558Z,101051.81
2023-05-21T08:55:09.395Z,101052.63
2023-05-21T08:57:39.405Z,101048.97
2023-05-21T09:00:09.092Z,101052.00
2023-05-21T09:02:40.967Z,101038.81
2023-05-21T09:05:10.232Z,101040.28
2023-05-21T09:07:44.968Z,101043.91
2023-05-21T09:10:28.261Z,101042.69
2023-05-21T09:12:57.527Z,101052.72
2023-05-21T09:15:28.214Z,101043.94
2023-05-21T09:17:59.062Z,101048.78
2023-05-21T09:20:56.798Z,101048.78
2023-05-21T09:23:30.068Z,101044.19
2023-05-21T09:25:58.919Z,101046.28
2023-05-21T09:28:32.857Z,101042.38
2023-05-21T09:31:05.046Z,101036.00
2023-05-21T09:33:34.865Z,101035.75
2023-05-21T09:36:03.775Z,101023.25
2023-05-21T09:38:35.430Z,101032.28
2023-05-21T09:41:06.633Z,101013.50
2023-05-21T09:43:36.300Z,101027.69
2023-05-21T09:46:05.776Z,101023.28
2023-05-21T09:48:37.983Z,101015.84
2023-05-21T09:51:14.338Z,101007.25
2023-05-21T09:53:49.734Z,101017.09
2023-05-21T09:56:20.426Z,101018.56
2023-05-21T09:58:49.682Z,101025.31
2023-05-21T10:01:18.091Z,101012.59
2023-05-21T10:03:51.654Z,101015.41
2023-05-21T10:06:21.057Z,101020.13
2023-05-21T10:08:53.527Z,101005.94
2023-05-21T10:11:24.983Z,101008.94
2023-05-21T10:13:58.819Z,101022.41
2023-05-21T10:16:27.257Z,100999.91
2023-05-21T10:18:58.215Z,101003.53
2023-05-21T10:21:28.068Z,101012.84
2023-05-21T10:23:57.670Z,101017.63
2023-05-21T10:26:26.565Z,101000.31
2023-05-21T10:28:57.453Z,101005.44
2023-05-21T10:31:27.765Z,100998.34
2023-05-21T10:33:58.654Z,101005.31
2023-05-21T10:36:32.209Z,101007.38
2023-05-21T10:39:03.155Z,101004.59
2023-05-21T10:41:40.808Z,100995.22
2023-05-21T10:44:18.065Z,101002.69
2023-05-21T10:47:10.349Z,100990.06
2023-05-21T10:49:53.214Z,101001.44
2023-05-21T10:52:36.612Z,100991.38
2023-05-21T10:55:18.965Z,100988.63
2023-05-21T10:58:13.798Z,100992.91
2023-05-21T11:00:43.830Z,100978.66
2023-05-21T11:03:14.328Z,100982.75
2023-05-21T11:05:53.552Z,100968.91
2023-05-21T11:08:26.465Z,100971.19
2023-05-21T11:10:55.963Z,100952.53
2023-05-21T11:13:24.232Z,100963.75
2023-05-21T11:16:08.078Z,100974.56
2023-05-21T11:19:00.220Z,100966.59
2023-05-21T11:21:32.406Z,100984.31
2023-05-21T11:24:06.545Z,100987.88
2023-05-21T11:27:07.182Z,100971.03
2023-05-21T11:29:41.707Z,100983.31
2023-05-21T11:32:11.790Z,100984.16
2023-05-21T11:34:41.985Z,100981.75
2023-05-21T11:37:30.266Z,100988.44
2023-05-21T11:40:00.148Z,100969.31
2023-05-21T11:42:33.611Z,100973.72
2023-05-21T11:45:03.759Z,100969.56
2023-05-21T11:47:33.974Z,100983.75
2023-05-21T11:50:03.551Z,100974.41
2023-05-21T11:52:33.902Z,100983.13
2023-05-21T11:55:02.457Z,100981.09
2023-05-21T11:57:31.976Z,100981.97
2023-05-21T12:00:02.659Z,100979.81
2023-05-21T12:02:45.326Z,100984.56
2023-05-21T12:05:13.764Z,100981.34
2023-05-21T12:07:44.020Z,100985.56
2023-05-21T12:10:13.587Z,100980.19
2023-05-21T12:12:53.929Z,100986.56
2023-05-21T12:15:24.575Z,100988.97
2023-05-21T12:17:54.339Z,100982.81
2023-05-21T12:20:25.017Z,100972.13
2023-05-21T12:22:55.701Z,100972.38
2023-05-21T12:25:24.252Z,100976.69
2023-05-21T12:27:57.994Z,100973.44
2023-05-21T12:30:27.428Z,100972.00
2023-05-21T12:32:59.713Z,100968.41
2023-05-21T12:35:28.573Z,100962.03
2023-05-21T12:38:03.690Z,100967.22
2023-05-21T12:40:40.631Z,100954.13
2023-05-21T12:43:09.336Z,100954.59
2023-05-21T12:45:40.767Z,100950.53
2023-05-21T12:48:09.638Z,100945.78
2023-05-21T12:50:40.978Z,100945.69
2023-05-21T12:53:12.524Z,100957.47
2023-05-21T12:55:41.667Z,100957.47
2023-05-21T12:58:10.072Z,100945.94
2023-05-21T13:00:38.953Z,100956.41
2023-05-21T13:03:07.668Z,100960.38
2023-05-21T13:05:36.701Z,100960.25
2023-05-21T13:08:05.299Z,100947.16
2023-05-21T13:10:35.429Z,100953.47
2023-05-21T13:13:04.059Z,100943.88
2023-05-21T13:15:33.122Z,100964.41
2023-05-21T13:18:01.926Z,100941.22
2023-05-21T13:20:30.703Z,100946.59
2023-05-21T13:22:59.011Z,100944.50
2023-05-21T13:25:29.714Z,100970.03
2023-05-21T13:28:02.835Z,100960.00
2023-05-21T13:30:31.322Z,100964.66
2023-05-21T13:32:59.617Z,100958.84
2023-05-21T13:35:27.937Z,100962.28
2023-05-21T13:37:56.160Z,100965.44
2023-05-21T13:40:24.573Z,100968.47
2023-05-21T13:42:53.375Z,100981.56
2023-05-21T13:45:29.258Z,100978.97
2023-05-21T13:47:58.284Z,100973.53
2023-05-21T13:50:26.964Z,100987.03
2023-05-21T13:52:55.260Z,100977.66
2023-05-21T13:55:23.660Z,100978.81
2023-05-21T13:57:51.995Z,100980.25
2023-05-21T14:00:20.254Z,100988.59
2023-05-21T14:02:50.326Z,100977.03
2023-05-21T14:05:19.101Z,100973.28
2023-05-21T14:07:48.586Z,100973.50
2023-05-21T14:10:17.125Z,100979.19
2023-05-21T14:12:46.647Z,100967.84
2023-05-21T14:15:15.357Z,100970.81
2023-05-21T14:17:43.786Z,100956.22
2023-05-21T14:20:14.138Z,100960.56
2023-05-21T14:22:42.515Z,100974.91
2023-05-21T14:25:11.098Z,100974.13
2023-05-21T14:27:39.427Z,100974.28
2023-05-21T14:30:08.937Z,100976.91
2023-05-21T14:32:37.214Z,100980.31
2023-05-21T14:35:06.546Z,100972.72
2023-05-21T14:37:36.402Z,100976.97
2023-05-21T14:40:05.630Z,100981.63
2023-05-21T14:42:33.757Z,100992.75
2023-05-21T14:45:17.352Z,100987.00
2023-05-21T14:47:47.795Z,100993.75
2023-05-21T14:50:17.604Z,100976.88
2023-05-21T14:52:47.361Z,100972.53
2023-05-21T14:55:16.981Z,100975.72
2023-05-21T14:57:45.533Z,100981.09
2023-05-21T15:00:14.511Z,100973.75
2023-05-21T15:02:43.189Z,100968.66
2023-05-21T15:05:11.634Z,100988.41
2023-05-21T15:07:39.932Z,100978.09
2023-05-21T15:10:10.867Z,100981.56
2023-05-21T15:12:39.354Z,100981.75
2023-05-21T15:15:08.381Z,100982.69
2023-05-21T15:17:37.203Z,100980.09
2023-05-21T15:20:07.296Z,100984.66
2023-05-21T15:22:36.221Z,100990.28
2023-05-21T15:25:05.680Z,100980.34
2023-05-21T15:27:36.026Z,100980.56
2023-05-21T15:30:05.122Z,100970.00
2023-05-21T15:32:33.552Z,100987.78
2023-05-21T15:35:02.288Z,100978.28
2023-05-21T15:37:32.403Z,100981.47
2023-05-21T15:40:01.024Z,100985.44
2023-05-21T15:42:31.914Z,100978.16
2023-05-21T15:45:01.703Z,100978.19
2023-05-21T15:47:30.351Z,100985.91
2023-05-21T15:50:00.532Z,100988.59
2023-05-21T15:52:28.871Z,100986.97
2023-05-21T15:54:58.146Z,100980.06
2023-05-21T15:57:26.645Z,100983.03
2023-05-21T15:59:54.902Z,100977.31
2023-05-21T16:02:24.667Z,100978.84
2023-05-21T16:04:53.749Z,100972.25
2023-05-21T16:07:24.197Z,100971.94
2023-05-21T16:09:52.526Z,100972.91
2023-05-21T16:12:21.049Z,100969.88
2023-05-21T16:14:50.939Z,100971.34
2023-05-21T16:17:19.806Z,100962.59
2023-05-21T16:19:49.782Z,100964.59
2023-05-21T16:22:17.924Z,100970.19
2023-05-21T16:24:46.313Z,100971.34
2023-05-21T16:27:15.150Z,100961.13
2023-05-21T16:29:43.940Z,100967.19
2023-05-21T16:32:14.088Z,100967.13
2023-05-21T16:34:42.691Z,100968.94
2023-05-21T16:37:12.370Z,100965.50
2023-05-21T16:39:40.926Z,100968.03
2023-05-21T16:42:09.283Z,100964.56
2023-05-21T16:44:41.931Z,100958.66
2023-05-21T16:56:56.718Z,100965.22
2023-05-21T17:03:37.396Z,100970.94
2023-05-21T17:09:56.629Z,100978.44
2023-05-21T17:12:33.956Z,100964.84
2023-05-21T17:15:29.798Z,100970.72
2023-05-21T17:18:05.224Z,100956.44
2023-05-21T17:23:45.714Z,100956.94
2023-05-21T17:30:00.349Z,100957.56
2023-05-21T17:32:32.761Z,100960.38
2023-05-21T17:35:01.149Z,100961.16
2023-05-21T17:37:29.989Z,100960.13
2023-05-21T17:39:58.909Z,100958.72
2023-05-21T17:42:27.212Z,100956.47
2023-05-21T17:44:55.880Z,100968.31
2023-05-21T17:47:24.429Z,100961.81
2023-05-21T17:49:54.196Z,100966.69
2023-05-21T17:52:22.863Z,100964.72
2023-05-21T17:54:51.041Z,100967.47
2023-05-21T17:57:20.349Z,100972.91
2023-05-21T17:59:48.582Z,100971.88
2023-05-21T18:02:16.789Z,100968.78
2023-05-21T18:04:45.259Z,100963.78
2023-05-21T18:07:16.210Z,100962.13
2023-05-21T18:09:44.552Z,100972.06
2023-05-21T18:12:12.754Z,100978.31
2023-05-21T18:14:40.975Z,100979.44
2023-05-21T18:17:09.721Z,100964.91
2023-05-21T18:19:38.409Z,100972.97
2023-05-21T18:22:06.963Z,100982.88
2023-05-21T18:24:38.375Z,100985.81
2023-05-21T18:27:07.405Z,100978.94
2023-05-21T18:29:36.792Z,100983.03
2023-05-21T18:32:05.395Z,100992.88
2023-05-21T18:34:33.635Z,100988.28
2023-05-21T18:37:02.331Z,100993.19
2023-05-21T18:39:30.531Z,100996.75
2023-05-21T18:42:11.996Z,100985.59
2023-05-21T18:44:42.249Z,100985.66
2023-05-21T18:47:11.813Z,100989.56
2023-05-21T18:49:40.439Z,100998.56
2023-05-21T18:52:09.221Z,100988.25
2023-05-21T18:54:37.537Z,100999.09
2023-05-21T18:57:07.698Z,100991.56
2023-05-21T18:59:36.443Z,101002.56
2023-05-21T19:02:05.751Z,101002.66
2023-05-21T19:04:34.456Z,101000.63
2023-05-21T19:07:04.018Z,100995.72
2023-05-21T19:09:32.291Z,100989.97
2023-05-21T19:12:01.675Z,100987.75
2023-05-21T19:14:31.326Z,100992.59
2023-05-21T19:16:59.562Z,101000.50
2023-05-21T19:19:28.050Z,100999.94
2023-05-21T19:21:56.657Z,101000.00
2023-05-21T19:24:25.438Z,100992.47
2023-05-21T19:26:53.760Z,100998.94
2023-05-21T19:29:22.844Z,101014.94
2023-05-21T19:31:56.149Z,101011.75
2023-05-21T19:34:26.763Z,101003.38
2023-05-21T19:36:55.221Z,100993.34
2023-05-21T19:39:23.482Z,101001.31
2023-05-21T19:41:51.776Z,101001.47
2023-05-21T19:44:20.179Z,101003.47
2023-05-21T19:46:49.172Z,101002.88
2023-05-21T19:49:20.084Z,101009.34
2023-05-21T19:51:49.575Z,101011.31
2023-05-21T19:54:18.984Z,101008.25
2023-05-21T19:56:47.299Z,101016.50
2023-05-21T19:59:15.820Z,101019.34
2023-05-21T20:01:44.440Z,101022.25
2023-05-21T20:04:19.270Z,101018.94
2023-05-21T20:06:53.358Z,101019.38
2023-05-21T20:09:21.611Z,101030.09
2023-05-21T20:11:50.137Z,101028.53
2023-05-21T20:14:18.399Z,101029.63
2023-05-21T20:16:48.517Z,101038.06
2023-05-21T20:19:16.894Z,101041.19
2023-05-21T20:21:45.095Z,101053.69
2023-05-21T20:24:15.226Z,101047.13
2023-05-21T20:26:45.053Z,101054.47
2023-05-21T20:29:13.348Z,101058.28
2023-05-21T20:31:53.932Z,101062.03
2023-05-21T20:34:35.155Z,101069.28
2023-05-21T20:37:22.937Z,101077.31
2023-05-21T20:40:00.207Z,101068.97
2023-05-21T20:42:34.325Z,101082.94
2023-05-21T20:45:03.384Z,101083.81
2023-05-21T20:47:32.117Z,101080.47
2023-05-21T20:50:02.860Z,101080.81
2023-05-21T20:52:31.149Z,101089.75
2023-05-21T20:55:01.027Z,101087.34
2023-05-21T20:57:31.431Z,101086.69
2023-05-21T21:00:02.997Z,101094.63
2023-05-21T21:02:32.909Z,101097.38
2023-05-21T21:05:02.795Z,101092.34
2023-05-21T21:07:33.634Z,101089.00
2023-05-21T21:10:03.585Z,101098.53
2023-05-21T21:12:32.364Z,101105.66
2023-05-21T21:15:00.687Z,101097.19
2023-05-21T21:17:29.027Z,101098.97
2023-05-21T21:19:57.240Z,101101.84
2023-05-21T21:22:25.867Z,101101.13
2023-05-21T21:24:54.037Z,101103.13
2023-05-21T21:27:23.801Z,101106.66
2023-05-21T21:29:52.141Z,101109.47
2023-05-21T21:32:21.409Z,101106.97
2023-05-21T21:34:49.847Z,101113.09
2023-05-21T21:37:19.735Z,101109.59
2023-05-21T21:39:48.315Z,101114.09
2023-05-21T21:42:16.671Z,101109.69
2023-05-21T21:44:46.439Z,101112.28
2023-05-21T21:47:14.816Z,101110.66
2023-05-21T21:49:43.412Z,101109.81
2023-05-21T21:52:12.773Z,101108.13
2023-05-21T21:54:42.103Z,101116.84
2023-05-21T21:57:10.444Z,101120.50
2023-05-21T21:59:40.249Z,101122.31
2023-05-21T22:02:11.052Z,101113.66
2023-05-21T22:04:39.405Z,101109.34
2023-05-21T22:07:11.046Z,101122.31
2023-05-21T22:09:39.645Z,101121.59
2023-05-21T22:12:09.239Z,101117.22
2023-05-21T22:14:37.539Z,101118.91
2023-05-21T22:17:08.406Z,101120.50
2023-05-21T22:19:38.992Z,101127.41
2023-05-21T22:22:07.426Z,101119.63
2023-05-21T22:24:35.885Z,101126.56
2023-05-21T22:27:04.887Z,101130.78
2023-05-21T22:29:33.128Z,101129.84
2023-05-21T22:32:01.606Z,101136.94
2023-05-21T22:34:30.321Z,101126.69
2023-05-21T22:37:00.144Z,101125.19
2023-05-21T22:39:28.513Z,101118.44
2023-05-21T22:41:56.878Z,101128.13
2023-05-21T22:44:25.482Z,101124.88
2023-05-21T22:46:56.473Z,101135.66
2023-05-21T22:49:25.079Z,101136.91
2023-05-21T22:51:54.381Z,101139.91
2023-05-21T22:54:24.056Z,101136.66
2023-05-21T22:56:52.547Z,101138.50
2023-05-21T22:59:21.300Z,101143.75
2023-05-21T23:01:49.845Z,101147.31
2023-05-21T23:04:19.486Z,101138.69
2023-05-21T23:06:48.936Z,101140.38
2023-05-21T23:09:17.185Z,101135.00
2023-05-21T23:11:46.812Z,101136.56
2023-05-21T23:14:15.128Z,101139.25
2023-05-21T23:16:44.228Z,101142.84
2023-05-21T23:19:13.158Z,101139.50
2023-05-21T23:21:41.620Z,101143.06
2023-05-21T23:24:11.471Z,101136.19
2023-05-21T23:26:39.689Z,101136.41
2023-05-21T23:29:09.427Z,101137.31
2023-05-21T23:31:37.945Z,101142.50
2023-05-21T23:34:06.569Z,101142.50
2023-05-21T23:36:34.819Z,101128.81
2023-05-21T23:39:03.281Z,101143.66
2023-05-21T23:41:31.515Z,101133.28
2023-05-21T23:43:59.706Z,101129.06
2023-05-21T23:46:29.315Z,101133.34
2023-05-21T23:48:57.682Z,101137.75
2023-05-21T23:51:26.563Z,101133.53
2023-05-21T23:53:55.368Z,101136.25
2023-05-21T23:56:23.571Z,101132.03
2023-05-21T23:58:53.072Z,101124.38
